TimeEDT,TemperatureF,Dew PointF,Humidity,Sea Level PressureIn,VisibilityMPH,Wind Direction,Wind SpeedMPH,Gust SpeedMPH,PrecipitationIn,Events,Conditions,WindDirDegrees,DateUTC
12:53 AM,73.9,71.1,91,30.17,10.0,SW,3.5,-,N/A,,Overcast,220,2012-10-04 04:53:00
1:53 AM,75.0,70.0,84,30.16,10.0,WSW,4.6,-,N/A,,Mostly Cloudy,250,2012-10-04 05:53:00
2:53 AM,73.9,69.1,85,30.15,10.0,Calm,Calm,-,N/A,,Mostly Cloudy,0,2012-10-04 06:53:00
3:53 AM,73.0,70.0,90,30.14,10.0,Calm,Calm,-,N/A,,Overcast,0,2012-10-04 07:53:00
4:53 AM,72.0,70.0,93,30.16,10.0,SW,5.8,-,N/A,,Scattered Clouds,230,2012-10-04 08:53:00
5:53 AM,72.0,69.1,91,30.18,10.0,West,4.6,-,N/A,,Overcast,260,2012-10-04 09:53:00
6:53 AM,71.1,68.0,90,30.19,10.0,West,3.5,-,N/A,,Mostly Cloudy,260,2012-10-04 10:53:00
7:53 AM,72.0,66.9,84,30.20,10.0,SW,3.5,-,N/A,,Overcast,220,2012-10-04 11:53:00
8:53 AM,73.0,64.9,76,30.22,9.0,WNW,11.5,-,N/A,,Overcast,300,2012-10-04 12:53:00
9:53 AM,70.0,66.0,87,30.22,10.0,NW,3.5,-,0.01,Rain,Light Rain,310,2012-10-04 13:53:00
10:53 AM,73.0,66.0,79,30.23,10.0,West,6.9,-,0.00,,Mostly Cloudy,280,2012-10-04 14:53:00
11:53 AM,75.0,66.0,73,30.22,10.0,West,6.9,-,N/A,,Partly Cloudy,270,2012-10-04 15:53:00
12:53 PM,77.0,64.9,66,30.21,10.0,WNW,8.1,-,N/A,,Partly Cloudy,290,2012-10-04 16:53:00
1:53 PM,75.0,66.0,73,30.19,10.0,WSW,8.1,-,0.00,Rain,Light Rain,250,2012-10-04 17:53:00
2:53 PM,75.0,66.9,76,30.16,10.0,SSW,8.1,-,0.00,,Scattered Clouds,210,2012-10-04 18:53:00
3:53 PM,77.0,66.0,69,30.15,10.0,West,4.6,-,N/A,,Clear,280,2012-10-04 19:53:00
4:53 PM,77.0,66.0,69,30.14,10.0,West,5.8,-,N/A,,Clear,270,2012-10-04 20:53:00
6:53 PM,73.9,64.9,73,30.15,10.0,West,4.6,-,N/A,,Clear,260,2012-10-04 22:53:00
7:53 PM,72.0,66.0,81,30.14,10.0,Calm,Calm,-,N/A,,Clear,0,2012-10-04 23:53:00
8:53 PM,70.0,66.9,90,30.16,10.0,Calm,Calm,-,N/A,,Clear,0,2012-10-05 00:53:00
9:53 PM,68.0,66.0,93,30.17,10.0,SW,3.5,-,N/A,,Clear,220,2012-10-05 01:53:00
10:53 PM,68.0,66.0,93,30.17,10.0,SW,3.5,-,N/A,,Clear,230,2012-10-05 02:53:00
11:53 PM,66.9,64.9,93,30.17,10.0,WSW,3.5,-,N/A,,Clear,250,2012-10-05 03:53:00